createdAt,value
2023-05-03T00:02:14.721Z,7.04
2023-05-03T00:05:01.577Z,7.18
2023-05-03T00:07:48.455Z,7.21
2023-05-03T00:10:34.945Z,7.38
2023-05-03T00:13:21.452Z,7.46
2023-05-03T00:16:11.730Z,7.49
2023-05-03T00:18:58.412Z,7.58
2023-05-03T00:21:44.419Z,7.45
2023-05-03T00:24:30.672Z,7.20
2023-05-03T00:27:18.246Z,7.36
2023-05-03T00:30:05.829Z,7.25
2023-05-03T00:32:52.381Z,7.09
2023-05-03T00:35:38.714Z,7.05
2023-05-03T00:38:25.071Z,7.09
2023-05-03T00:41:11.614Z,7.07
2023-05-03T00:43:58.005Z,6.88
2023-05-03T00:46:44.551Z,6.75
2023-05-03T00:49:33.770Z,6.74
2023-05-03T00:52:20.400Z,6.67
2023-05-03T00:55:08.477Z,6.58
2023-05-03T00:57:54.763Z,6.51
2023-05-03T01:00:44.114Z,6.47
2023-05-03T01:03:30.752Z,6.27
2023-05-03T01:06:41.604Z,6.42
2023-05-03T01:10:01.385Z,6.36
2023-05-03T01:13:33.271Z,6.23
2023-05-03T01:16:40.950Z,6.33
2023-05-03T01:19:38.832Z,6.42
2023-05-03T01:22:38.796Z,6.47
2023-05-03T01:25:27.242Z,6.40
2023-05-03T01:28:18.163Z,6.30
2023-05-03T01:31:04.529Z,6.25
2023-05-03T01:34:05.549Z,6.09
2023-05-03T01:36:55.777Z,5.37
2023-05-03T01:40:02.533Z,6.25
2023-05-03T01:42:50.396Z,5.98
2023-05-03T01:45:37.042Z,6.41
2023-05-03T01:48:23.515Z,5.71
2023-05-03T01:51:09.906Z,6.22
2023-05-03T01:53:56.431Z,6.05
2023-05-03T01:56:43.008Z,5.97
2023-05-03T01:59:29.442Z,5.80
2023-05-03T02:02:15.706Z,5.70
2023-05-03T02:05:03.387Z,5.68
2023-05-03T02:07:49.828Z,5.72
2023-05-03T02:10:36.240Z,5.71
2023-05-03T02:13:22.568Z,5.07
2023-05-03T02:16:09.646Z,5.36
2023-05-03T02:19:01.617Z,4.97
2023-05-03T02:21:48.184Z,5.32
2023-05-03T02:24:36.260Z,5.43
2023-05-03T02:27:22.716Z,5.25
2023-05-03T02:30:09.374Z,5.35
2023-05-03T02:33:02.302Z,4.39
2023-05-03T02:35:51.702Z,5.13
2023-05-03T02:38:38.255Z,4.83
2023-05-03T02:41:25.147Z,5.03
2023-05-03T02:44:11.786Z,5.05
2023-05-03T02:46:58.199Z,4.98
2023-05-03T02:49:45.614Z,5.05
2023-05-03T02:52:32.207Z,5.00
2023-05-03T02:55:18.944Z,4.91
2023-05-03T02:58:06.541Z,4.84
2023-05-03T03:00:53.086Z,4.88
2023-05-03T03:03:39.422Z,4.62
2023-05-03T03:06:26.127Z,4.88
2023-05-03T03:09:12.983Z,4.77
2023-05-03T03:12:03.508Z,4.56
2023-05-03T03:14:49.832Z,4.57
2023-05-03T03:17:39.391Z,4.64
2023-05-03T03:20:29.186Z,4.43
2023-05-03T03:23:19.584Z,4.51
2023-05-03T03:26:06.985Z,4.66
2023-05-03T03:28:53.751Z,4.84
2023-05-03T03:31:40.818Z,4.71
2023-05-03T03:34:27.752Z,4.50
2023-05-03T03:37:14.633Z,4.55
2023-05-03T03:40:02.490Z,4.54
2023-05-03T03:42:50.081Z,4.46
2023-05-03T03:45:36.600Z,4.45
2023-05-03T03:48:23.321Z,4.39
2023-05-03T03:51:09.731Z,4.33
2023-05-03T03:54:02.296Z,4.32
2023-05-03T03:56:53.743Z,4.30
2023-05-03T03:59:41.043Z,4.52
2023-05-03T04:02:28.017Z,4.35
2023-05-03T04:05:15.044Z,4.15
2023-05-03T04:08:02.554Z,4.24
2023-05-03T04:10:51.470Z,4.21
2023-05-03T04:13:39.077Z,4.07
2023-05-03T04:16:25.659Z,4.41
2023-05-03T04:19:14.017Z,4.52
2023-05-03T04:22:01.825Z,4.49
2023-05-03T04:24:48.722Z,4.35
2023-05-03T04:27:35.354Z,4.28
2023-05-03T04:30:21.989Z,4.35
2023-05-03T04:33:12.583Z,4.35
2023-05-03T04:36:01.192Z,4.59
2023-05-03T04:38:48.311Z,4.57
2023-05-03T04:41:34.889Z,4.59
2023-05-03T04:44:22.329Z,4.81
2023-05-03T04:47:10.785Z,5.02
2023-05-03T04:49:57.552Z,5.33
2023-05-03T04:52:45.042Z,5.33
2023-05-03T04:55:32.610Z,5.63
2023-05-03T04:58:19.132Z,5.86
2023-05-03T05:01:07.332Z,6.25
2023-05-03T05:03:54.288Z,7.11
2023-05-03T05:06:48.360Z,7.91
2023-05-03T05:09:39.932Z,8.53
2023-05-03T05:12:27.117Z,9.10
2023-05-03T05:15:13.828Z,9.11
2023-05-03T05:18:00.816Z,9.78
2023-05-03T05:20:47.252Z,10.19
2023-05-03T05:23:34.027Z,10.01
2023-05-03T05:26:20.395Z,9.95
2023-05-03T05:29:07.148Z,9.62
2023-05-03T05:31:53.993Z,9.67
2023-05-03T05:34:44.975Z,9.28
2023-05-03T05:37:33.030Z,9.03
2023-05-03T05:40:22.485Z,8.52
2023-05-03T05:43:14.092Z,8.68
2023-05-03T05:46:04.298Z,8.70
2023-05-03T05:48:52.341Z,8.04
2023-05-03T05:51:39.451Z,8.84
2023-05-03T05:54:26.685Z,8.31
2023-05-03T05:57:14.567Z,8.88
2023-05-03T06:00:01.635Z,9.11
2023-05-03T06:02:49.538Z,9.19
2023-05-03T06:05:39.693Z,9.30
2023-05-03T06:08:28.799Z,9.47
2023-05-03T06:11:15.306Z,9.92
2023-05-03T06:14:09.421Z,9.81
2023-05-03T06:16:59.859Z,10.10
2023-05-03T06:19:48.705Z,10.14
2023-05-03T06:22:34.900Z,10.14
2023-05-03T06:25:21.592Z,10.27
2023-05-03T06:28:09.687Z,10.40
2023-05-03T06:30:56.416Z,10.51
2023-05-03T06:33:43.016Z,10.56
2023-05-03T06:36:31.094Z,10.81
2023-05-03T06:39:18.063Z,10.62
2023-05-03T06:42:05.556Z,10.68
2023-05-03T06:44:56.596Z,10.54
2023-05-03T06:47:43.297Z,10.53
2023-05-03T06:50:29.775Z,10.34
2023-05-03T06:53:16.218Z,10.46
2023-05-03T06:56:03.671Z,10.40
2023-05-03T06:58:50.604Z,10.53
2023-05-03T07:01:37.071Z,10.49
2023-05-03T07:04:23.564Z,10.73
2023-05-03T07:07:10.084Z,10.75
2023-05-03T07:09:56.678Z,10.71
2023-05-03T07:12:42.959Z,10.61
2023-05-03T07:15:30.015Z,11.09
2023-05-03T07:18:16.661Z,11.31
2023-05-03T07:21:07.253Z,11.33
2023-05-03T07:23:55.415Z,11.89
2023-05-03T07:26:43.785Z,11.87
2023-05-03T07:29:31.023Z,12.13
2023-05-03T07:32:17.297Z,12.17
2023-05-03T07:35:04.319Z,12.17
2023-05-03T07:37:50.692Z,12.03
2023-05-03T07:40:37.200Z,12.33
2023-05-03T07:43:23.661Z,12.18
2023-05-03T07:46:10.452Z,12.86
2023-05-03T07:48:58.400Z,12.96
2023-05-03T07:51:44.578Z,13.35
2023-05-03T07:54:31.185Z,13.52
2023-05-03T07:57:17.961Z,13.66
2023-05-03T08:00:06.170Z,13.54
2023-05-03T08:02:58.717Z,14.36
2023-05-03T08:05:46.503Z,14.50
2023-05-03T08:08:33.966Z,14.60
2023-05-03T08:11:20.308Z,14.66
2023-05-03T08:14:06.673Z,14.82
2023-05-03T08:16:52.932Z,14.65
2023-05-03T08:19:39.266Z,14.76
2023-05-03T08:22:26.860Z,14.57
2023-05-03T08:25:13.601Z,13.90
2023-05-03T08:28:00.003Z,13.74
2023-05-03T08:30:46.342Z,13.61
2023-05-03T08:33:33.221Z,13.62
2023-05-03T08:36:19.722Z,13.62
2023-05-03T08:39:06.881Z,13.37
2023-05-03T08:41:56.348Z,13.07
2023-05-03T08:44:48.517Z,13.20
2023-05-03T08:47:37.493Z,13.14
2023-05-03T08:50:25.380Z,13.07
2023-05-03T08:53:11.962Z,13.29
2023-05-03T08:55:58.357Z,13.58
2023-05-03T08:58:44.816Z,13.72
2023-05-03T09:01:31.430Z,13.38
2023-05-03T09:04:17.901Z,14.10
2023-05-03T09:07:08.787Z,14.32
2023-05-03T09:09:57.148Z,14.59
2023-05-03T09:12:45.593Z,14.97
2023-05-03T09:15:32.596Z,15.38
2023-05-03T09:18:20.495Z,15.70
2023-05-03T09:21:06.745Z,15.97
2023-05-03T09:23:53.386Z,16.34
2023-05-03T09:26:40.877Z,15.92
2023-05-03T09:29:32.087Z,15.94
2023-05-03T09:32:19.111Z,15.68
2023-05-03T09:35:10.098Z,15.19
2023-05-03T09:37:56.760Z,15.12
2023-05-03T09:40:48.084Z,15.06
2023-05-03T09:43:38.158Z,15.20
2023-05-03T09:46:25.601Z,15.41
2023-05-03T09:49:12.002Z,15.52
2023-05-03T09:52:00.272Z,15.42
2023-05-03T09:54:47.175Z,15.53
2023-05-03T09:57:33.687Z,15.70
2023-05-03T10:00:20.686Z,15.75
2023-05-03T10:03:09.578Z,15.82
2023-05-03T10:05:56.204Z,15.89
2023-05-03T10:08:53.124Z,16.08
2023-05-03T10:11:43.262Z,16.50
2023-05-03T10:14:29.788Z,16.77
2023-05-03T10:17:46.324Z,16.92
2023-05-03T10:20:55.303Z,17.07
2023-05-03T10:24:15.962Z,17.01
2023-05-03T10:27:03.074Z,17.31
2023-05-03T10:29:51.892Z,17.27
2023-05-03T10:32:43.150Z,16.87
2023-05-03T10:35:30.097Z,16.36
2023-05-03T10:38:19.799Z,16.28
2023-05-03T10:41:07.052Z,16.58
2023-05-03T10:43:53.360Z,16.62
2023-05-03T10:46:39.641Z,16.45
2023-05-03T10:49:26.540Z,16.37
2023-05-03T10:52:35.108Z,16.71
2023-05-03T10:55:25.090Z,16.28
2023-05-03T10:58:15.116Z,16.43
2023-05-03T11:01:04.667Z,16.81
2023-05-03T11:04:13.830Z,17.04
2023-05-03T11:07:01.350Z,17.33
2023-05-03T11:09:48.154Z,16.93
2023-05-03T11:12:34.815Z,17.19
2023-05-03T11:15:21.206Z,16.75
2023-05-03T11:18:08.791Z,16.42
2023-05-03T11:20:55.917Z,16.67
2023-05-03T11:23:43.313Z,17.03
2023-05-03T11:26:35.726Z,17.20
2023-05-03T11:29:24.717Z,17.18
2023-05-03T11:32:11.703Z,17.47
2023-05-03T11:34:59.175Z,17.66
2023-05-03T11:37:45.397Z,17.83
2023-05-03T11:40:32.097Z,17.95
2023-05-03T11:43:18.700Z,18.16
2023-05-03T11:46:05.707Z,18.53
2023-05-03T11:48:52.442Z,18.70
2023-05-03T11:51:39.559Z,18.91
2023-05-03T11:54:28.299Z,18.64
2023-05-03T11:57:16.206Z,19.12
2023-05-03T12:00:14.594Z,18.78
2023-05-03T12:03:01.396Z,18.77
2023-05-03T12:05:49.751Z,19.01
2023-05-03T12:08:38.154Z,19.16
2023-05-03T12:11:28.136Z,19.10
2023-05-03T12:14:17.550Z,18.98
2023-05-03T12:17:04.015Z,19.32
2023-05-03T12:19:53.909Z,19.63
2023-05-03T12:22:43.674Z,19.50
2023-05-03T12:25:33.823Z,19.85
2023-05-03T12:28:21.533Z,19.90
2023-05-03T12:31:08.105Z,19.70
2023-05-03T12:34:12.526Z,19.41
2023-05-03T12:37:04.869Z,18.85
2023-05-03T12:40:00.930Z,18.54
2023-05-03T12:42:57.692Z,18.69
2023-05-03T12:45:48.159Z,19.43
2023-05-03T12:48:39.924Z,19.72
2023-05-03T12:51:27.783Z,20.13
2023-05-03T12:54:18.563Z,20.56
2023-05-03T12:57:09.142Z,19.73
2023-05-03T13:00:03.221Z,19.04
2023-05-03T13:05:40.842Z,18.42
2023-05-03T13:08:34.056Z,18.23
2023-05-03T13:11:22.062Z,18.58
2023-05-03T13:14:08.964Z,18.96
2023-05-03T13:16:55.838Z,19.57
2023-05-03T13:19:47.285Z,20.25
2023-05-03T13:22:33.969Z,20.20
2023-05-03T13:25:21.018Z,20.17
2023-05-03T13:28:07.672Z,19.85
2023-05-03T13:30:54.405Z,19.49
2023-05-03T13:33:41.501Z,18.85
2023-05-03T13:36:29.425Z,18.68
2023-05-03T13:39:15.768Z,18.94
2023-05-03T13:42:02.306Z,19.26
2023-05-03T13:44:48.538Z,19.41
2023-05-03T13:48:04.352Z,19.25
2023-05-03T13:50:41.726Z,18.97
2023-05-03T13:53:28.073Z,19.17
2023-05-03T13:56:14.996Z,19.58
2023-05-03T13:59:02.005Z,19.80
2023-05-03T14:01:48.592Z,20.09
2023-05-03T14:04:35.166Z,19.92
2023-05-03T14:07:21.586Z,19.22
2023-05-03T14:10:09.094Z,18.50
2023-05-03T14:12:57.886Z,18.16
2023-05-03T14:15:45.288Z,18.29
2023-05-03T14:18:31.992Z,18.43
2023-05-03T14:21:19.660Z,18.88
2023-05-03T14:24:06.657Z,19.26
2023-05-03T14:26:53.257Z,19.28
2023-05-03T14:29:39.980Z,19.15
2023-05-03T14:32:27.046Z,19.05
2023-05-03T14:35:15.022Z,18.88
2023-05-03T14:38:01.158Z,18.35
2023-05-03T14:40:47.447Z,18.49
2023-05-03T14:43:33.709Z,18.62
2023-05-03T14:46:19.950Z,18.53
2023-05-03T14:49:07.076Z,18.34
2023-05-03T14:51:53.358Z,18.66
2023-05-03T14:54:39.654Z,18.94
2023-05-03T14:57:26.086Z,19.39
2023-05-03T15:00:17.662Z,19.62
2023-05-03T15:03:05.130Z,19.54
2023-05-03T15:05:51.685Z,18.84
2023-05-03T15:08:39.317Z,18.61
2023-05-03T15:11:27.752Z,18.59
2023-05-03T15:14:14.082Z,18.49
2023-05-03T15:17:00.795Z,18.29
2023-05-03T15:19:47.763Z,18.39
2023-05-03T15:22:36.117Z,18.44
2023-05-03T15:25:23.101Z,18.48
2023-05-03T15:28:09.313Z,18.62
2023-05-03T15:30:55.811Z,18.95
2023-05-03T15:33:43.430Z,18.92
2023-05-03T15:36:29.863Z,19.26
2023-05-03T15:39:16.238Z,19.22
2023-05-03T15:42:02.469Z,19.30
2023-05-03T15:44:49.687Z,19.28
2023-05-03T15:47:36.339Z,19.38
2023-05-03T15:50:22.992Z,19.07
2023-05-03T15:53:09.297Z,18.82
2023-05-03T15:55:58.714Z,18.44
2023-05-03T15:58:45.447Z,18.59
2023-05-03T16:01:32.067Z,18.72
2023-05-03T16:04:18.399Z,18.75
2023-05-03T16:07:05.106Z,18.74
2023-05-03T16:09:51.769Z,18.80
2023-05-03T16:12:38.300Z,18.65
2023-05-03T16:15:24.847Z,18.64
2023-05-03T16:18:11.677Z,18.66
2023-05-03T16:20:58.447Z,18.39
2023-05-03T16:23:48.821Z,18.46
2023-05-03T16:26:35.496Z,18.25
2023-05-03T16:29:22.062Z,18.29
2023-05-03T16:32:09.818Z,18.02
2023-05-03T16:34:56.812Z,17.84
2023-05-03T16:37:43.106Z,18.03
2023-05-03T16:40:29.764Z,18.00
2023-05-03T16:43:18.298Z,17.98
2023-05-03T16:46:04.534Z,17.93
2023-05-03T16:48:51.846Z,18.02
2023-05-03T16:51:39.592Z,17.84
2023-05-03T16:54:26.527Z,17.70
2023-05-03T16:57:13.152Z,17.69
2023-05-03T17:00:03.269Z,17.82
2023-05-03T17:02:51.260Z,17.76
2023-05-03T17:05:37.899Z,17.63
2023-05-03T17:08:24.229Z,16.72
2023-05-03T17:11:13.514Z,17.55
2023-05-03T17:14:02.599Z,17.39
2023-05-03T17:16:49.371Z,17.28
2023-05-03T17:19:35.878Z,17.28
2023-05-03T17:22:22.529Z,17.12
2023-05-03T17:25:09.651Z,17.37
2023-05-03T17:27:56.465Z,17.30
2023-05-03T17:30:42.735Z,17.25
2023-05-03T17:33:29.384Z,17.14
2023-05-03T17:36:15.605Z,17.20
2023-05-03T17:39:02.358Z,18.04
2023-05-03T17:41:48.837Z,18.57
2023-05-03T17:44:35.086Z,18.96
2023-05-03T17:47:25.132Z,18.72
2023-05-03T17:50:12.929Z,17.85
2023-05-03T17:53:00.111Z,17.19
2023-05-03T17:55:46.301Z,16.88
2023-05-03T17:58:32.725Z,16.58
2023-05-03T18:01:24.341Z,16.35
2023-05-03T18:04:10.847Z,16.38
2023-05-03T18:06:57.132Z,16.18
2023-05-03T18:09:43.685Z,16.06
2023-05-03T18:12:30.268Z,16.09
2023-05-03T18:15:17.701Z,15.95
2023-05-03T18:18:04.600Z,15.81
2023-05-03T18:20:59.430Z,15.68
2023-05-03T18:23:46.048Z,15.55
2023-05-03T18:26:32.517Z,15.55
2023-05-03T18:29:18.663Z,15.39
2023-05-03T18:32:05.743Z,15.39
2023-05-03T18:34:52.048Z,15.31
2023-05-03T18:37:38.296Z,15.23
2023-05-03T18:40:25.107Z,15.13
2023-05-03T18:43:11.937Z,15.01
2023-05-03T18:45:58.597Z,14.84
2023-05-03T18:48:46.111Z,14.91
2023-05-03T18:51:32.586Z,14.77
2023-05-03T18:54:20.325Z,14.62
2023-05-03T18:57:06.825Z,14.65
2023-05-03T19:00:00.725Z,14.46
2023-05-03T19:02:50.573Z,14.45
2023-05-03T19:05:37.341Z,14.41
2023-05-03T19:08:24.017Z,14.31
2023-05-03T19:11:12.783Z,14.10
2023-05-03T19:14:00.467Z,14.06
2023-05-03T19:16:46.836Z,13.93
2023-05-03T19:19:33.530Z,13.81
2023-05-03T19:22:19.944Z,13.83
2023-05-03T19:25:06.747Z,13.71
2023-05-03T19:27:52.886Z,13.53
2023-05-03T19:30:41.301Z,13.40
2023-05-03T19:33:28.099Z,13.16
2023-05-03T19:36:14.990Z,13.09
2023-05-03T19:39:03.440Z,13.02
2023-05-03T19:41:52.932Z,12.97
2023-05-03T19:44:39.278Z,12.87
2023-05-03T19:47:25.552Z,12.72
2023-05-03T19:50:12.547Z,12.58
2023-05-03T19:52:59.114Z,12.47
2023-05-03T19:55:59.330Z,12.30
2023-05-03T19:58:46.343Z,12.10
2023-05-03T20:01:32.692Z,11.85
2023-05-03T20:04:19.354Z,11.68
2023-05-03T20:07:05.888Z,11.63
2023-05-03T20:09:52.371Z,11.41
2023-05-03T20:12:38.631Z,11.30
2023-05-03T20:15:24.931Z,11.16
2023-05-03T20:18:11.356Z,10.80
2023-05-03T20:20:57.481Z,11.06
2023-05-03T20:23:43.960Z,10.94
2023-05-03T20:26:30.476Z,10.83
2023-05-03T20:29:16.757Z,10.77
2023-05-03T20:32:03.302Z,10.62
2023-05-03T20:34:49.916Z,10.59
2023-05-03T20:37:38.550Z,10.37
2023-05-03T20:40:25.049Z,10.32
2023-05-03T20:43:11.784Z,10.29
2023-05-03T20:45:58.631Z,10.22
2023-05-03T20:48:45.283Z,10.09
2023-05-03T20:51:34.412Z,9.30
2023-05-03T20:54:20.995Z,9.81
2023-05-03T20:57:12.205Z,9.68
2023-05-03T20:59:59.950Z,9.54
2023-05-03T21:02:49.859Z,9.31
2023-05-03T21:05:36.174Z,9.36
2023-05-03T21:08:23.431Z,9.30
2023-05-03T21:11:09.797Z,9.22
2023-05-03T21:13:56.336Z,9.14
2023-05-03T21:16:42.664Z,9.10
2023-05-03T21:19:29.359Z,8.91
2023-05-03T21:22:15.983Z,8.87
2023-05-03T21:25:02.405Z,8.95
2023-05-03T21:27:49.103Z,8.87
2023-05-03T21:30:35.410Z,8.81
2023-05-03T21:33:21.843Z,8.33
2023-05-03T21:36:08.675Z,8.67
2023-05-03T21:38:55.198Z,8.60
2023-05-03T21:41:43.555Z,8.51
2023-05-03T21:44:30.291Z,8.35
2023-05-03T21:47:16.780Z,8.40
2023-05-03T21:50:05.999Z,8.40
2023-05-03T21:52:52.927Z,8.52
2023-05-03T21:55:39.199Z,7.88
2023-05-03T21:58:26.061Z,8.01
2023-05-03T22:01:12.959Z,8.04
2023-05-03T22:03:59.813Z,7.95
2023-05-03T22:06:46.997Z,7.74
2023-05-03T22:09:33.584Z,7.72
2023-05-03T22:12:24.094Z,7.80
2023-05-03T22:15:11.393Z,7.65
2023-05-03T22:17:57.832Z,7.55
2023-05-03T22:20:44.010Z,7.54
2023-05-03T22:23:30.987Z,7.46
2023-05-03T22:26:17.501Z,7.32
2023-05-03T22:29:03.615Z,7.32
2023-05-03T22:31:51.687Z,7.27
2023-05-03T22:34:38.264Z,7.29
2023-05-03T22:37:24.909Z,7.26
2023-05-03T22:40:11.998Z,7.19
2023-05-03T22:42:58.464Z,7.13
2023-05-03T22:45:44.987Z,7.10
2023-05-03T22:48:32.717Z,7.20
2023-05-03T22:51:19.602Z,7.29
2023-05-03T22:54:06.176Z,7.14
2023-05-03T22:56:52.542Z,6.94
2023-05-03T22:59:38.912Z,6.91
2023-05-03T23:02:25.294Z,6.73
2023-05-03T23:05:12.042Z,6.70
2023-05-03T23:07:58.489Z,6.34
2023-05-03T23:10:45.534Z,6.61
2023-05-03T23:13:31.708Z,6.61
2023-05-03T23:16:18.255Z,6.58
2023-05-03T23:19:04.819Z,6.54
2023-05-03T23:21:51.350Z,6.45
2023-05-03T23:24:39.409Z,6.35
2023-05-03T23:27:26.137Z,6.32
2023-05-03T23:30:13.824Z,6.40
2023-05-03T23:33:00.779Z,6.36
2023-05-03T23:35:48.675Z,6.17
2023-05-03T23:38:35.448Z,6.22
2023-05-03T23:41:21.741Z,6.14
2023-05-03T23:44:08.489Z,6.04
2023-05-03T23:46:54.946Z,5.81
2023-05-03T23:49:41.560Z,5.91
2023-05-03T23:52:27.725Z,5.95
2023-05-03T23:55:14.211Z,5.88
2023-05-03T23:58:00.512Z,5.84
